Time;durP1;ratioP1;P1;durP2;ratioP2;P2;SDS_P1;SDS_P2;PMS_P1;PMS_P2;Temp;Humidity;BMP_temperature;BMP_pressure;BME280_temperature;BME280_humidity;BME280_pressure;Samples;Min_cycle;Max_cycle;Signal;HPM_P1;HPM_P2
2022/06/09 00:01:20;;;;;;;15.40;6.50;;;;;;;15.81;74.61;99480.77;106160;1270;22613;-53
2022/06/09 00:03:58;;;;;;;15.20;6.90;;;;;;;15.77;74.62;99482.06;106205;1270;25290;-49
2022/06/09 00:06:35;;;;;;;12.20;5.50;;;;;;;15.74;74.61;99482.50;106213;1270;24232;-52
2022/06/09 00:09:08;;;;;;;13.60;5.70;;;;;;;15.71;74.54;99482.13;106088;1270;25413;-52
2022/06/09 00:11:42;;;;;;;11.40;5.40;;;;;;;15.68;74.76;99476.25;106113;1270;25314;-52
2022/06/09 00:14:14;;;;;;;11.60;5.40;;;;;;;15.66;74.76;99472.50;106194;1270;25291;-50
2022/06/09 00:16:46;;;;;;;12.00;5.70;;;;;;;15.64;74.84;99467.35;106204;1270;24192;-52
2022/06/09 00:19:18;;;;;;;11.70;5.20;;;;;;;15.62;74.99;99466.15;105942;1270;24201;-52
2022/06/09 00:21:50;;;;;;;14.40;7.00;;;;;;;15.62;74.93;99463.86;105956;1270;22555;-49
2022/06/09 00:24:22;;;;;;;12.80;6.10;;;;;;;15.59;74.96;99464.30;106236;1270;25403;-51
2022/06/09 00:26:54;;;;;;;13.60;5.80;;;;;;;15.56;75.14;99463.11;106161;1270;22767;-50
2022/06/09 00:29:26;;;;;;;12.80;5.90;;;;;;;15.55;75.79;99462.66;105977;1270;24212;-52
2022/06/09 00:31:58;;;;;;;13.80;6.30;;;;;;;15.55;75.70;99461.95;106121;1270;25376;-52
2022/06/09 00:34:30;;;;;;;13.20;6.20;;;;;;;15.54;76.06;99463.15;105971;1270;25535;-50
2022/06/09 00:37:02;;;;;;;11.70;5.50;;;;;;;15.53;76.28;99462.86;106000;1270;22598;-50
2022/06/09 00:39:33;;;;;;;11.70;5.00;;;;;;;15.49;76.44;99460.45;106146;1270;22643;-52
2022/06/09 00:42:08;;;;;;;13.90;5.90;;;;;;;15.42;76.71;99452.85;106287;1270;22547;-53
2022/06/09 00:44:42;;;;;;;13.90;6.60;;;;;;;15.33;77.14;99446.22;106231;1270;25522;-50
2022/06/09 00:47:22;;;;;;;14.30;6.60;;;;;;;15.24;77.55;99446.88;106143;1270;24325;-50
2022/06/09 00:50:00;;;;;;;11.90;5.50;;;;;;;15.17;78.09;99440.58;106038;1270;22538;-50
2022/06/09 00:52:35;;;;;;;13.10;6.00;;;;;;;15.07;78.30;99437.18;106062;1270;26515;-52
2022/06/09 00:55:13;;;;;;;11.30;4.70;;;;;;;14.99;78.43;99434.77;105948;1270;24404;-52
2022/06/09 00:57:49;;;;;;;15.40;5.90;;;;;;;14.96;78.35;99426.69;106023;1270;22552;-56
2022/06/09 01:00:24;;;;;;;13.50;6.70;;;;;;;14.96;78.82;99431.48;106082;1270;22533;-50
2022/06/09 01:03:00;;;;;;;12.30;5.80;;;;;;;14.97;79.00;99433.52;106021;1270;25234;-57
2022/06/09 01:05:34;;;;;;;12.90;5.70;;;;;;;14.98;78.71;99431.24;106319;1270;25494;-52
2022/06/09 01:08:07;;;;;;;13.30;6.00;;;;;;;14.98;78.65;99433.80;106215;1270;24215;-50
2022/06/09 01:10:39;;;;;;;13.40;6.30;;;;;;;14.98;78.66;99432.08;106285;1270;24680;-50
2022/06/09 01:13:10;;;;;;;12.50;5.80;;;;;;;14.98;78.79;99430.52;106227;1270;25349;-54
2022/06/09 01:15:51;;;;;;;13.20;6.10;;;;;;;14.98;78.86;99430.42;106246;1270;22681;-54
2022/06/09 01:18:34;;;;;;;14.70;6.80;;;;;;;15.00;79.15;99427.65;106176;1268;24264;-50
2022/06/09 01:21:13;;;;;;;14.50;6.70;;;;;;;15.00;79.16;99425.60;106212;1270;22484;-53
2022/06/09 01:24:17;;;;;;;19.10;7.60;;;;;;;15.00;79.26;99425.04;106161;1270;22557;-51
2022/06/09 01:27:05;;;;;;;16.30;7.50;;;;;;;15.00;79.29;99424.89;106085;1270;24260;-53
2022/06/09 01:29:45;;;;;;;15.60;7.00;;;;;;;15.01;79.49;99420.95;106082;1270;22583;-52
2022/06/09 01:32:24;;;;;;;14.80;7.30;;;;;;;15.01;80.05;99412.81;106161;1270;22594;-51
2022/06/09 01:35:06;;;;;;;17.10;8.70;;;;;;;14.96;80.63;99411.25;105997;1270;22482;-49
2022/06/09 01:37:42;;;;;;;17.90;7.80;;;;;;;14.93;81.01;99409.75;105989;1270;23079;-49
2022/06/09 01:40:17;;;;;;;17.70;7.00;;;;;;;14.94;80.71;99410.66;106131;1270;26655;-52
2022/06/09 01:42:51;;;;;;;19.50;8.60;;;;;;;14.96;81.05;99407.83;106103;1270;22574;-51
2022/06/09 01:45:26;;;;;;;20.70;11.00;;;;;;;14.98;81.29;99408.20;105959;1270;22544;-54
2022/06/09 01:48:04;;;;;;;20.00;8.30;;;;;;;14.99;81.26;99406.61;106181;1270;22542;-55
2022/06/09 01:50:42;;;;;;;18.30;8.50;;;;;;;14.98;81.16;99413.26;106225;1270;22574;-50
2022/06/09 01:53:18;;;;;;;17.70;8.50;;;;;;;14.96;80.99;99409.62;106269;1270;23069;-50
2022/06/09 01:55:56;;;;;;;19.50;9.10;;;;;;;14.94;80.79;99408.60;106037;1270;22567;-53
2022/06/09 01:58:34;;;;;;;18.50;8.40;;;;;;;14.93;80.89;99402.70;106053;1270;22968;-54
2022/06/09 02:01:08;;;;;;;16.50;7.60;;;;;;;14.92;81.08;99398.52;106119;1270;22525;-53
2022/06/09 02:03:44;;;;;;;19.20;8.20;;;;;;;14.92;80.80;99394.17;106087;1270;24248;-51
2022/06/09 02:06:18;;;;;;;15.60;7.90;;;;;;;14.93;80.86;99396.27;105938;1270;22679;-51
2022/06/09 02:08:50;;;;;;;15.60;7.80;;;;;;;14.94;80.85;99397.52;105901;1270;22681;-49
2022/06/09 02:11:22;;;;;;;15.10;7.10;;;;;;;14.96;80.76;99400.27;106056;1270;24998;-50
2022/06/09 02:13:56;;;;;;;22.10;8.60;;;;;;;14.97;80.96;99400.24;106129;1270;24690;-53
2022/06/09 02:16:29;;;;;;;16.10;6.50;;;;;;;14.98;81.13;99400.90;106063;1270;22551;-52
2022/06/09 02:19:01;;;;;;;18.10;8.30;;;;;;;14.99;81.13;99405.48;106219;1270;25505;-52
2022/06/09 02:21:35;;;;;;;19.20;9.20;;;;;;;15.00;81.25;99405.63;106045;1269;23958;-52
2022/06/09 02:24:08;;;;;;;19.30;8.90;;;;;;;15.01;81.64;99406.27;106318;1270;24172;-54
2022/06/09 02:26:41;;;;;;;21.30;9.80;;;;;;;15.02;81.83;99408.50;106101;1270;25282;-55
2022/06/09 02:29:15;;;;;;;20.20;10.20;;;;;;;15.03;81.85;99413.60;106161;1270;25219;-54
2022/06/09 02:31:48;;;;;;;18.10;9.00;;;;;;;15.04;82.12;99414.71;106299;1270;25386;-49
2022/06/09 02:34:21;;;;;;;18.60;9.40;;;;;;;15.04;82.24;99417.11;106074;1270;22550;-49
2022/06/09 02:36:53;;;;;;;20.90;10.50;;;;;;;15.06;82.27;99418.52;106151;1270;22553;-49
2022/06/09 02:39:24;;;;;;;18.00;9.60;;;;;;;15.07;82.42;99420.92;106278;1270;22537;-50
2022/06/09 02:41:57;;;;;;;20.20;10.70;;;;;;;15.09;82.51;99420.13;106282;1270;24343;-52
2022/06/09 02:44:28;;;;;;;22.00;11.20;;;;;;;15.11;82.72;99424.05;106385;1270;22534;-49
2022/06/09 02:47:00;;;;;;;21.20;10.80;;;;;;;15.13;82.94;99425.84;106024;1270;22528;-50
2022/06/09 02:49:31;;;;;;;19.50;10.20;;;;;;;15.15;83.10;99427.05;106054;1270;24310;-54
2022/06/09 02:52:03;;;;;;;22.00;11.20;;;;;;;15.17;83.14;99435.30;106075;1270;25276;-50
2022/06/09 02:54:35;;;;;;;22.00;11.00;;;;;;;15.18;83.20;99441.33;106207;1270;22535;-51
2022/06/09 02:57:07;;;;;;;23.80;11.60;;;;;;;15.20;83.35;99448.00;106128;1270;22590;-53
2022/06/09 02:59:39;;;;;;;24.50;11.30;;;;;;;15.22;83.63;99453.41;106112;1270;22841;-49
2022/06/09 03:02:11;;;;;;;20.30;10.90;;;;;;;15.24;83.89;99450.71;106086;1270;25564;-49
2022/06/09 03:04:42;;;;;;;22.20;11.20;;;;;;;15.27;83.88;99455.17;106169;1270;22493;-51
2022/06/09 03:07:14;;;;;;;24.20;13.00;;;;;;;15.31;84.06;99456.70;106216;1270;26758;-52
2022/06/09 03:09:46;;;;;;;22.40;11.70;;;;;;;15.35;84.24;99457.85;106175;1270;22591;-50
2022/06/09 03:12:17;;;;;;;22.60;13.20;;;;;;;15.38;84.58;99458.14;106168;1270;24076;-51
2022/06/09 03:14:49;;;;;;;25.50;13.30;;;;;;;15.44;84.91;99459.84;106148;1270;24326;-51
2022/06/09 03:17:20;;;;;;;23.70;14.30;;;;;;;15.49;84.96;99456.06;106122;1270;22540;-54
2022/06/09 03:19:53;;;;;;;24.20;13.60;;;;;;;15.53;84.86;99457.53;106030;1270;22540;-52
2022/06/09 03:22:25;;;;;;;26.80;14.10;;;;;;;15.58;84.90;99458.89;106019;1270;24029;-49
2022/06/09 03:24:57;;;;;;;26.90;15.50;;;;;;;15.63;85.17;99463.02;106026;1270;26229;-51
2022/06/09 03:27:28;;;;;;;24.60;13.90;;;;;;;15.67;85.37;99464.04;106000;1270;22540;-49
2022/06/09 03:30:01;;;;;;;27.30;14.50;;;;;;;15.71;85.34;99462.85;106318;1270;25431;-53
2022/06/09 03:32:32;;;;;;;28.20;16.50;;;;;;;15.76;85.81;99461.09;106369;1270;22579;-52
2022/06/09 03:35:04;;;;;;;30.80;15.60;;;;;;;15.80;86.09;99461.39;106206;1270;22550;-52
2022/06/09 03:37:36;;;;;;;31.40;17.20;;;;;;;15.83;85.78;99461.13;106191;1270;22636;-49
2022/06/09 03:40:13;;;;;;;29.70;15.80;;;;;;;15.88;85.80;99461.73;106028;1270;22521;-52
2022/06/09 03:42:45;;;;;;;26.10;15.10;;;;;;;15.92;85.99;99461.83;106196;1270;27524;-52
2022/06/09 03:45:17;;;;;;;27.60;15.00;;;;;;;15.96;86.29;99465.50;106194;1270;23922;-51
2022/06/09 03:47:48;;;;;;;27.50;15.70;;;;;;;16.00;86.44;99469.70;105987;1270;23810;-52
2022/06/09 03:50:23;;;;;;;27.70;16.10;;;;;;;16.03;86.42;99465.98;106026;1270;24267;-50
2022/06/09 03:52:55;;;;;;;28.40;16.10;;;;;;;16.06;86.49;99463.10;106070;1270;24221;-51
2022/06/09 03:55:26;;;;;;;25.70;14.50;;;;;;;16.09;86.42;99464.48;106154;1270;22556;-51
2022/06/09 03:57:59;;;;;;;26.60;15.40;;;;;;;16.13;86.18;99464.67;106074;1270;24443;-50
2022/06/09 04:00:32;;;;;;;27.80;15.60;;;;;;;16.16;86.16;99467.34;106174;1270;25490;-50
2022/06/09 04:03:05;;;;;;;29.20;16.90;;;;;;;16.20;86.42;99466.80;106286;1270;22522;-51
2022/06/09 04:05:37;;;;;;;26.80;16.30;;;;;;;16.24;86.49;99462.30;106025;1270;24510;-53
2022/06/09 04:08:13;;;;;;;26.00;14.90;;;;;;;16.28;86.60;99464.39;105878;1270;25500;-60
2022/06/09 04:10:48;;;;;;;29.10;16.80;;;;;;;16.31;86.49;99465.31;106216;1270;22588;-49
2022/06/09 04:13:21;;;;;;;27.10;14.80;;;;;;;16.35;86.73;99461.71;106142;1270;24311;-50
2022/06/09 04:15:53;;;;;;;26.10;16.00;;;;;;;16.37;86.66;99462.75;106099;1270;25306;-53
2022/06/09 04:18:24;;;;;;;29.10;16.50;;;;;;;16.40;86.85;99464.33;105944;1270;22550;-53
2022/06/09 04:20:57;;;;;;;29.10;16.70;;;;;;;16.44;87.28;99463.15;106028;1270;24254;-53
2022/06/09 04:23:29;;;;;;;28.10;16.30;;;;;;;16.46;87.40;99464.89;106299;1270;22576;-50
2022/06/09 04:26:01;;;;;;;30.30;17.80;;;;;;;16.49;87.36;99467.98;106160;1270;24215;-49
2022/06/09 04:28:33;;;;;;;28.10;16.70;;;;;;;16.52;87.72;99465.02;106050;1270;22694;-49
2022/06/09 04:31:04;;;;;;;27.10;16.90;;;;;;;16.55;87.59;99474.03;106268;1270;22762;-53
2022/06/09 04:33:36;;;;;;;28.20;16.20;;;;;;;16.59;87.87;99474.45;106149;1269;24339;-51
2022/06/09 04:36:10;;;;;;;31.30;17.80;;;;;;;16.60;87.78;99473.08;105825;1270;24551;-53
2022/06/09 04:38:42;;;;;;;28.00;16.20;;;;;;;16.61;88.01;99471.14;106593;1270;25280;-52
2022/06/09 04:41:16;;;;;;;29.20;17.60;;;;;;;16.61;87.87;99469.59;105953;1270;22682;-52
2022/06/09 04:43:49;;;;;;;33.10;18.10;;;;;;;16.63;88.20;99466.77;106101;1270;25432;-52
2022/06/09 04:46:22;;;;;;;28.60;17.20;;;;;;;16.66;88.23;99470.42;105997;1270;22542;-50
2022/06/09 04:48:54;;;;;;;27.40;16.10;;;;;;;16.68;88.42;99470.69;106010;1270;22707;-50
2022/06/09 04:51:27;;;;;;;27.60;16.80;;;;;;;16.71;88.45;99472.27;106050;1270;22525;-58
2022/06/09 04:53:59;;;;;;;33.20;18.00;;;;;;;16.74;88.47;99477.75;106026;1270;23290;-58
2022/06/09 04:56:31;;;;;;;30.90;17.30;;;;;;;16.76;88.86;99479.52;106216;1270;25450;-57
2022/06/09 04:59:03;;;;;;;28.70;17.20;;;;;;;16.78;88.80;99484.04;106176;1270;24706;-57
2022/06/09 05:01:35;;;;;;;28.10;17.80;;;;;;;16.81;89.09;99482.19;106095;1270;22707;-56
2022/06/09 05:04:07;;;;;;;26.20;16.50;;;;;;;16.82;89.22;99474.05;106282;1270;22471;-57
2022/06/09 05:06:39;;;;;;;30.60;17.70;;;;;;;16.84;89.33;99465.06;106114;1270;22550;-59
2022/06/09 05:09:11;;;;;;;36.60;18.00;;;;;;;16.84;89.51;99468.60;106242;1270;22517;-57
2022/06/09 05:11:43;;;;;;;31.10;16.90;;;;;;;16.82;89.67;99477.86;106050;1270;24393;-59
2022/06/09 05:14:15;;;;;;;31.60;18.10;;;;;;;16.82;89.77;99477.00;106077;1270;22686;-57
2022/06/09 05:16:46;;;;;;;29.80;16.90;;;;;;;16.84;89.61;99474.65;106361;1270;25691;-57
2022/06/09 05:19:18;;;;;;;27.80;16.00;;;;;;;16.86;89.45;99480.25;106154;1270;22684;-56
2022/06/09 05:21:52;;;;;;;26.00;15.80;;;;;;;16.89;89.29;99488.08;106024;1270;23183;-57
2022/06/09 05:24:24;;;;;;;30.90;18.10;;;;;;;16.92;89.69;99492.94;106113;1270;22647;-56
2022/06/09 05:26:56;;;;;;;27.60;17.10;;;;;;;16.95;89.91;99491.25;106180;1270;22646;-56
2022/06/09 05:29:27;;;;;;;30.10;17.80;;;;;;;16.98;90.20;99495.66;106129;1270;22628;-57
2022/06/09 05:32:01;;;;;;;27.10;16.90;;;;;;;17.01;90.42;99499.87;106006;1270;23026;-56
2022/06/09 05:34:33;;;;;;;33.30;17.10;;;;;;;17.03;90.55;99498.59;106005;1270;22600;-57
2022/06/09 05:37:06;;;;;;;28.00;17.70;;;;;;;17.07;90.66;99500.67;106183;1270;22547;-55
2022/06/09 05:45:14;;;;;;;27.60;17.30;;;;;;;17.14;91.05;99504.44;105902;1270;22619;-58
2022/06/09 05:47:46;;;;;;;27.20;16.30;;;;;;;17.16;91.03;99504.55;106064;1270;24477;-53
2022/06/09 05:50:21;;;;;;;28.40;17.40;;;;;;;17.18;90.99;99510.75;106030;1270;22744;-55
2022/06/09 05:52:53;;;;;;;29.00;17.30;;;;;;;17.24;91.19;99511.98;105984;1270;22998;-57
2022/06/09 05:55:25;;;;;;;28.50;18.00;;;;;;;17.28;91.30;99512.56;106115;1270;24451;-55
2022/06/09 05:57:57;;;;;;;29.20;18.60;;;;;;;17.32;91.47;99515.98;106034;1270;24135;-54
2022/06/09 06:00:29;;;;;;;27.90;17.90;;;;;;;17.37;91.65;99511.94;106004;1270;25233;-54
2022/06/09 06:03:01;;;;;;;30.30;17.70;;;;;;;17.40;91.78;99507.88;105990;1270;24322;-52
2022/06/09 06:08:21;;;;;;;30.80;19.30;;;;;;;17.51;91.80;99509.10;105885;1270;25505;-55
2022/06/09 06:10:53;;;;;;;27.90;17.30;;;;;;;17.58;92.33;99510.60;106095;1270;22649;-54
2022/06/09 06:13:25;;;;;;;31.10;20.30;;;;;;;17.64;92.07;99510.14;106073;1270;22640;-55
2022/06/09 06:15:57;;;;;;;28.70;18.60;;;;;;;17.69;92.25;99515.34;106058;1270;26616;-56
2022/06/09 06:18:30;;;;;;;30.90;17.70;;;;;;;17.75;92.40;99513.56;106158;1270;22574;-54
2022/06/09 06:21:01;;;;;;;29.80;18.70;;;;;;;17.82;92.37;99513.48;106016;1270;22531;-56
2022/06/09 06:23:34;;;;;;;30.40;18.70;;;;;;;17.89;92.31;99515.90;106250;1270;22786;-55
2022/06/09 06:26:07;;;;;;;31.70;19.60;;;;;;;17.92;92.17;99512.36;106221;1270;22563;-56
2022/06/09 06:28:41;;;;;;;31.10;18.30;;;;;;;17.97;92.20;99509.39;105908;1270;25237;-55
2022/06/09 06:31:13;;;;;;;29.80;18.20;;;;;;;18.01;92.30;99503.43;106000;1270;24269;-55
2022/06/09 06:33:45;;;;;;;26.10;16.80;;;;;;;18.05;91.89;99504.27;105899;1270;25526;-57
2022/06/09 06:36:17;;;;;;;25.50;15.40;;;;;;;18.09;91.34;99505.66;105950;1270;23513;-56
2022/06/09 06:38:50;;;;;;;29.50;18.30;;;;;;;18.14;91.38;99507.49;105845;1270;24221;-54
2022/06/09 06:41:23;;;;;;;28.70;17.90;;;;;;;18.21;91.99;99511.55;105928;1270;22987;-55
2022/06/09 06:43:54;;;;;;;27.80;17.30;;;;;;;18.29;92.14;99510.39;105999;1270;25288;-56
2022/06/09 06:46:27;;;;;;;28.90;18.10;;;;;;;18.36;91.99;99519.81;105916;1270;22557;-55
2022/06/09 06:48:58;;;;;;;28.70;17.30;;;;;;;18.43;91.36;99517.63;106362;1270;26753;-53
2022/06/09 06:51:30;;;;;;;28.40;17.00;;;;;;;18.50;91.59;99521.92;106027;1270;24203;-52
2022/06/09 06:54:04;;;;;;;26.30;16.50;;;;;;;18.55;91.26;99524.92;106144;1270;23267;-53
2022/06/09 06:56:41;;;;;;;26.50;16.60;;;;;;;18.59;90.81;99519.08;105985;1270;22987;-55
2022/06/09 06:59:13;;;;;;;27.00;16.10;;;;;;;18.67;91.42;99516.42;105820;1270;25388;-53
2022/06/09 07:01:45;;;;;;;24.90;15.50;;;;;;;18.75;90.64;99515.39;105965;1270;22688;-52
2022/06/09 07:04:17;;;;;;;24.10;15.00;;;;;;;18.83;91.30;99518.23;105970;1270;24373;-52
2022/06/09 07:06:48;;;;;;;26.10;16.60;;;;;;;18.93;90.89;99520.27;105854;1270;22529;-54
2022/06/09 07:09:20;;;;;;;26.50;15.80;;;;;;;19.00;90.21;99515.67;105909;1270;24425;-51
2022/06/09 07:11:52;;;;;;;29.80;16.60;;;;;;;19.11;90.56;99520.50;106356;1270;24434;-51
2022/06/09 07:14:23;;;;;;;27.90;17.70;;;;;;;19.24;90.99;99523.52;106308;1270;23923;-51
2022/06/09 07:16:55;;;;;;;28.70;17.30;;;;;;;19.37;90.43;99527.79;106007;1270;22525;-52
2022/06/09 07:19:29;;;;;;;25.70;15.30;;;;;;;19.48;90.04;99531.26;105988;1270;22690;-52
2022/06/09 07:22:00;;;;;;;21.90;13.40;;;;;;;19.56;89.36;99530.20;106321;1270;23230;-55
2022/06/09 07:24:33;;;;;;;26.10;14.80;;;;;;;19.63;89.30;99527.93;106038;1270;22547;-51
2022/06/09 07:27:05;;;;;;;21.80;13.60;;;;;;;19.67;88.26;99526.10;105429;1270;518504;-53
2022/06/09 07:29:38;;;;;;;23.70;14.40;;;;;;;19.68;88.11;99526.60;106195;1270;24351;-53
2022/06/09 07:32:11;;;;;;;23.80;13.90;;;;;;;19.74;88.59;99530.37;105955;1270;25631;-55
2022/06/09 07:34:43;;;;;;;23.60;13.40;;;;;;;19.83;88.11;99532.34;106086;1270;22526;-53
2022/06/09 07:37:16;;;;;;;22.90;13.60;;;;;;;19.89;87.57;99533.67;106126;1270;24271;-51
2022/06/09 07:39:48;;;;;;;23.40;14.50;;;;;;;19.91;86.85;99533.20;105947;1270;24374;-55
2022/06/09 07:42:20;;;;;;;25.10;15.80;;;;;;;19.98;87.32;99529.17;106021;1270;22534;-54
2022/06/09 07:44:52;;;;;;;22.80;13.90;;;;;;;20.09;87.26;99535.23;106147;1270;25277;-53
2022/06/09 07:47:24;;;;;;;27.40;13.80;;;;;;;20.21;87.09;99540.57;106094;1270;26032;-53
2022/06/09 07:49:57;;;;;;;24.60;14.60;;;;;;;20.27;86.60;99544.19;106043;1270;25247;-54
2022/06/09 07:52:28;;;;;;;23.70;15.00;;;;;;;20.27;85.62;99541.57;106056;1270;25356;-50
2022/06/09 07:55:00;;;;;;;26.40;15.60;;;;;;;20.23;85.47;99540.92;105999;1270;26649;-54
2022/06/09 07:57:32;;;;;;;24.50;14.10;;;;;;;20.22;85.42;99542.84;105992;1270;24420;-53
2022/06/09 08:00:07;;;;;;;28.00;15.00;;;;;;;20.26;85.47;99543.30;106111;1270;22530;-55
2022/06/09 08:02:40;;;;;;;21.90;13.40;;;;;;;20.30;85.51;99533.98;105934;1270;22546;-53
2022/06/09 08:05:15;;;;;;;23.90;13.70;;;;;;;20.39;85.56;99535.77;105964;1270;24289;-53
2022/06/09 08:07:47;;;;;;;24.10;14.00;;;;;;;20.51;85.53;99535.73;106036;1270;24372;-52
2022/06/09 08:10:21;;;;;;;23.30;13.10;;;;;;;20.60;84.12;99534.16;106008;1270;22706;-52
2022/06/09 08:12:57;;;;;;;20.60;11.60;;;;;;;20.63;83.56;99531.44;106025;1270;22579;-55
2022/06/09 08:15:31;;;;;;;19.20;10.80;;;;;;;20.69;83.13;99539.79;106067;1270;27002;-56
2022/06/09 08:18:05;;;;;;;19.40;10.90;;;;;;;20.73;83.33;99541.88;106085;1270;26242;-54
2022/06/09 08:20:40;;;;;;;19.60;10.10;;;;;;;20.79;82.92;99543.96;106141;1270;22564;-51
2022/06/09 08:23:15;;;;;;;21.90;11.20;;;;;;;20.89;82.94;99549.15;105991;1270;24625;-51
2022/06/09 08:25:48;;;;;;;18.30;10.00;;;;;;;20.94;81.72;99548.16;105926;1270;23859;-52
2022/06/09 08:28:20;;;;;;;17.90;9.10;;;;;;;20.96;81.24;99551.23;106072;1270;25513;-54
2022/06/09 08:30:56;;;;;;;17.10;9.10;;;;;;;20.98;80.58;99549.64;106056;1270;23057;-53
2022/06/09 08:33:29;;;;;;;17.50;9.30;;;;;;;21.02;80.41;99550.17;106065;1270;22522;-54
2022/06/09 08:36:00;;;;;;;16.60;8.50;;;;;;;21.04;79.82;99550.69;105986;1270;26908;-53
2022/06/09 08:38:32;;;;;;;18.10;9.40;;;;;;;21.06;79.82;99551.86;106152;1270;22615;-56
2022/06/09 08:41:13;;;;;;;18.40;9.40;;;;;;;21.10;79.49;99551.44;106208;1270;22826;-52
2022/06/09 08:43:55;;;;;;;19.20;9.40;;;;;;;21.14;79.77;99550.56;105912;1270;22660;-53
2022/06/09 08:46:40;;;;;;;17.00;8.50;;;;;;;21.22;79.66;99549.54;105847;1270;25489;-51
2022/06/09 08:49:37;;;;;;;21.40;10.80;;;;;;;21.33;79.63;99551.21;105900;1270;25539;-55
2022/06/09 08:52:22;;;;;;;18.30;8.00;;;;;;;21.44;79.49;99550.39;105951;1270;22525;-51
2022/06/09 08:54:58;;;;;;;14.90;7.20;;;;;;;21.56;78.97;99560.64;105809;1271;22552;-54
2022/06/09 08:57:34;;;;;;;19.10;9.10;;;;;;;21.62;77.83;99562.06;106052;1270;22544;-54
2022/06/09 09:00:08;;;;;;;15.70;7.60;;;;;;;21.67;77.74;99565.46;106111;1270;23308;-57
2022/06/09 09:02:43;;;;;;;15.50;8.40;;;;;;;21.73;77.44;99567.83;106029;1270;22532;-54
2022/06/09 09:05:24;;;;;;;21.20;8.10;;;;;;;21.66;76.58;99567.23;105914;1270;22620;-55
2022/06/09 09:08:01;;;;;;;18.00;9.40;;;;;;;21.58;76.84;99572.04;105858;1270;22545;-55
2022/06/09 09:10:40;;;;;;;16.90;8.90;;;;;;;21.48;76.50;99575.50;105921;1270;22551;-57
2022/06/09 09:13:32;;;;;;;19.00;10.10;;;;;;;21.34;76.69;99576.05;105920;1270;22697;-55
2022/06/09 09:16:10;;;;;;;19.70;10.40;;;;;;;21.23;77.03;99580.13;105904;1270;22611;-53
2022/06/09 09:18:52;;;;;;;20.00;10.60;;;;;;;21.11;76.62;99575.26;106307;1270;25187;-55
2022/06/09 09:21:37;;;;;;;17.50;9.00;;;;;;;21.03;76.98;99581.48;106180;1270;24286;-55
2022/06/09 09:24:21;;;;;;;18.60;9.90;;;;;;;20.96;76.76;99578.09;105948;1271;24332;-57
2022/06/09 09:27:09;;;;;;;19.50;9.50;;;;;;;20.91;76.97;99582.73;105914;1270;22545;-54
2022/06/09 09:29:47;;;;;;;19.40;8.90;;;;;;;20.88;76.86;99585.20;106277;1270;26738;-57
2022/06/09 09:32:24;;;;;;;18.20;9.90;;;;;;;20.84;76.86;99580.70;106039;1270;24371;-56
2022/06/09 09:34:59;;;;;;;18.00;9.60;;;;;;;20.82;76.94;99582.23;105995;1270;22544;-53
2022/06/09 09:37:34;;;;;;;18.30;9.40;;;;;;;20.81;77.23;99581.60;106042;1270;22561;-56
2022/06/09 09:40:19;;;;;;;16.30;9.60;;;;;;;20.83;77.15;99584.17;106150;1270;25470;-54
2022/06/09 09:42:54;;;;;;;17.50;9.70;;;;;;;20.84;76.86;99585.08;105716;1270;22527;-53
2022/06/09 09:45:35;;;;;;;18.10;9.90;;;;;;;20.86;77.03;99590.07;105821;1270;22592;-56
2022/06/09 09:48:14;;;;;;;18.10;9.30;;;;;;;20.87;76.75;99591.47;106366;1270;26338;-56
2022/06/09 09:50:53;;;;;;;17.10;9.70;;;;;;;20.90;76.79;99594.99;106159;1270;26588;-53
2022/06/09 09:53:29;;;;;;;14.90;8.70;;;;;;;20.91;76.58;99598.70;105866;1270;22527;-55
2022/06/09 09:56:02;;;;;;;17.90;9.00;;;;;;;20.92;76.34;99598.06;106198;1270;24270;-54
2022/06/09 09:58:39;;;;;;;16.60;8.50;;;;;;;20.96;76.60;99592.77;105891;1270;22534;-55
2022/06/09 10:08:35;;;;;;;17.80;8.50;;;;;;;21.01;76.36;99593.50;106055;1270;22693;-53
2022/06/09 10:10:28;;;;;;;15.30;6.40;;;;;;;21.29;75.06;99593.20;105541;1276;25194;-54
2022/06/09 10:13:00;;;;;;;13.60;6.90;;;;;;;21.37;74.79;99595.36;105635;1274;23225;-54
2022/06/09 10:15:36;;;;;;;14.20;7.20;;;;;;;21.47;74.91;99598.06;105546;1275;22537;-54
2022/06/09 10:18:16;;;;;;;11.60;5.40;;;;;;;21.57;74.61;99603.17;105672;1275;25398;-57
2022/06/09 10:21:04;;;;;;;12.70;5.70;;;;;;;21.66;73.89;99605.30;105563;1276;22586;-52
2022/06/09 10:23:45;;;;;;;12.00;6.30;;;;;;;21.76;73.60;99605.47;105423;1276;22568;-56
2022/06/09 10:26:22;;;;;;;13.20;5.90;;;;;;;21.86;73.26;99601.38;105434;1275;22645;-54
2022/06/09 10:29:03;;;;;;;12.10;5.40;;;;;;;21.93;72.27;99603.79;105611;1276;22556;-56
2022/06/09 10:31:53;;;;;;;11.60;5.50;;;;;;;22.01;72.00;99605.09;105567;1274;25581;-53
2022/06/09 10:34:38;;;;;;;10.80;4.80;;;;;;;22.09;71.55;99610.63;105503;1274;23808;-55
2022/06/09 10:37:21;;;;;;;9.20;4.70;;;;;;;22.17;71.38;99608.24;105563;1274;22510;-52
2022/06/09 10:40:00;;;;;;;13.80;6.00;;;;;;;22.28;70.97;99609.30;105524;1275;25304;-55
2022/06/09 10:42:37;;;;;;;11.10;5.90;;;;;;;22.36;70.45;99608.00;105863;1274;22534;-54
2022/06/09 10:45:27;;;;;;;10.70;5.20;;;;;;;22.46;70.30;99601.34;105943;1270;25201;-55
2022/06/09 10:56:58;;;;;;;10.40;4.00;;;;;;;23.00;68.51;99600.27;105877;1270;22541;-56
2022/06/09 10:59:36;;;;;;;10.30;3.80;;;;;;;23.11;67.56;99601.71;106226;1270;22554;-51
2022/06/09 11:02:15;;;;;;;12.50;6.20;;;;;;;23.17;67.89;99599.14;106106;1270;22532;-55
2022/06/09 11:04:50;;;;;;;15.50;7.90;;;;;;;23.17;66.88;99600.17;106088;1270;25359;-55
2022/06/09 11:07:51;;;;;;;11.90;6.40;;;;;;;23.11;67.48;99598.60;106189;1270;25305;-50
2022/06/09 11:10:34;;;;;;;14.30;7.40;;;;;;;23.09;67.65;99603.66;105945;1270;22541;-54
2022/06/09 11:13:27;;;;;;;14.90;6.90;;;;;;;23.09;67.33;99599.73;106048;1270;22557;-54
2022/06/09 11:16:12;;;;;;;13.20;6.90;;;;;;;23.06;66.77;99599.09;105897;1271;26579;-54
2022/06/09 11:18:53;;;;;;;16.50;7.60;;;;;;;22.97;66.53;99593.99;105935;1270;22623;-53
2022/06/09 11:21:31;;;;;;;12.20;5.80;;;;;;;22.91;66.84;99588.31;106073;1270;22614;-51
2022/06/09 11:24:17;;;;;;;13.90;6.50;;;;;;;22.91;66.31;99587.33;106017;1270;25333;-54
2022/06/09 11:26:55;;;;;;;14.70;6.40;;;;;;;22.86;66.03;99583.04;105907;1271;24379;-53
2022/06/09 11:29:41;;;;;;;12.90;6.80;;;;;;;22.87;66.29;99577.64;105924;1270;22674;-51
2022/06/09 11:32:27;;;;;;;12.80;6.60;;;;;;;22.91;65.74;99580.91;106119;1270;22616;-55
2022/06/09 11:35:16;;;;;;;16.00;6.30;;;;;;;22.95;65.12;99578.86;105981;1271;26476;-53
2022/06/09 11:38:03;;;;;;;12.40;6.60;;;;;;;22.95;65.20;99579.70;105851;1271;25513;-53
2022/06/09 11:40:42;;;;;;;12.60;5.90;;;;;;;22.98;65.36;99583.70;105837;1270;25398;-50
2022/06/09 11:43:31;;;;;;;13.90;6.90;;;;;;;23.03;65.35;99586.02;105857;1270;25342;-55
2022/06/09 11:46:06;;;;;;;14.00;7.60;;;;;;;23.04;65.08;99585.23;106029;1270;22519;-54
2022/06/09 11:48:41;;;;;;;14.00;8.00;;;;;;;23.05;65.33;99585.16;105983;1270;22588;-55
2022/06/09 11:51:16;;;;;;;15.90;7.90;;;;;;;23.04;65.45;99589.42;105985;1271;22633;-52
2022/06/09 11:53:52;;;;;;;12.80;7.50;;;;;;;23.03;65.60;99588.22;105880;1271;22900;-53
2022/06/09 11:56:36;;;;;;;13.90;7.10;;;;;;;23.03;65.70;99587.54;106530;1262;22557;-70
2022/06/09 11:59:18;;;;;;;16.70;9.10;;;;;;;23.06;65.53;99589.45;106053;1270;22552;-68
2022/06/09 12:02:26;;;;;;;13.30;7.20;;;;;;;23.07;65.53;99592.17;105934;1270;25512;-69
2022/06/09 12:05:25;;;;;;;17.80;8.70;;;;;;;23.16;65.36;99591.55;105554;1277;23270;-67
2022/06/09 12:08:18;;;;;;;14.20;7.80;;;;;;;23.24;65.06;99590.97;105227;1281;22624;-68
2022/06/09 12:11:05;;;;;;;20.50;8.10;;;;;;;23.28;64.64;99590.98;105302;1281;24246;-68
2022/06/09 12:14:01;;;;;;;16.90;8.00;;;;;;;23.31;64.39;99589.08;105247;1281;22572;-68
2022/06/09 12:16:37;;;;;;;14.10;7.40;;;;;;;23.37;64.50;99586.46;105601;1280;22549;-68